Time;durP1;ratioP1;P1;durP2;ratioP2;P2;SDS_P1;SDS_P2;PMS_P1;PMS_P2;Temp;Humidity;BMP_temperature;BMP_pressure;BME280_temperature;BME280_humidity;BME280_pressure;Samples;Min_cycle;Max_cycle;Signal;HPM_P1;HPM_P2
2022/01/19 00:19:32;;;;;;;2.35;2.12;;;;;;;;;;4953297;28;20072;31
2022/01/19 00:21:58;;;;;;;1.98;1.87;;;;;;;;;;4174900;34;20205;-57
2022/01/19 00:24:24;;;;;;;2.65;1.98;;;;;;;;;;4177277;34;20122;-58
2022/01/19 00:26:50;;;;;;;2.72;2.05;;;;;;;;;;4177601;34;20102;-58
2022/01/19 00:29:16;;;;;;;2.47;2.28;;;;;;;;;;4176974;34;20213;-59
2022/01/19 00:31:42;;;;;;;2.65;2.45;;;;;;;;;;4177251;34;20103;-58
2022/01/19 00:34:08;;;;;;;2.05;1.85;;;;;;;;;;4177466;34;20122;-58
2022/01/19 00:36:34;;;;;;;2.87;2.20;;;;;;;;;;4177402;34;20128;-58
2022/01/19 00:39:00;;;;;;;3.58;2.10;;;;;;;;;;4177295;34;20154;-57
2022/01/19 00:41:26;;;;;;;2.40;2.20;;;;;;;;;;4177406;34;20432;-57
2022/01/19 00:43:52;;;;;;;2.20;2.00;;;;;;;;;;4177231;34;20139;-58
2022/01/19 00:46:18;;;;;;;3.37;2.50;;;;;;;;;;4177197;34;20118;-59
2022/01/19 00:48:43;;;;;;;2.95;2.00;;;;;;;;;;4177521;34;20278;-58
2022/01/19 00:51:09;;;;;;;2.78;2.05;;;;;;;;;;4177505;34;20098;-57
2022/01/19 00:53:35;;;;;;;2.78;2.08;;;;;;;;;;4177154;34;20138;-58
2022/01/19 00:56:01;;;;;;;2.25;2.05;;;;;;;;;;4177407;34;20126;-57
2022/01/19 00:58:27;;;;;;;3.65;2.28;;;;;;;;;;4177164;34;20237;-58
2022/01/19 01:00:54;;;;;;;2.28;2.08;;;;;;;;;;4177202;34;20110;-58
2022/01/19 01:03:20;;;;;;;2.20;2.00;;;;;;;;;;4177116;34;20214;-58
2022/01/19 01:05:46;;;;;;;2.25;1.90;;;;;;;;;;4177026;34;20142;-58
2022/01/19 01:08:12;;;;;;;2.22;2.03;;;;;;;;;;4177094;34;20129;-58
2022/01/19 01:10:42;;;;;;;2.20;2.00;;;;;;;;;;4177141;34;20125;-58
2022/01/19 01:16:00;;;;;;;2.70;2.10;;;;;;;;;;4176904;34;20113;-58
2022/01/19 01:18:28;;;;;;;2.25;2.05;;;;;;;;;;4176910;34;20166;-57
2022/01/19 01:20:55;;;;;;;2.37;2.00;;;;;;;;;;4176853;34;20122;-58
2022/01/19 01:23:24;;;;;;;2.45;1.95;;;;;;;;;;4164095;34;20137;-57
2022/01/19 01:25:51;;;;;;;2.33;1.90;;;;;;;;;;4164243;34;20098;-58
2022/01/19 01:28:17;;;;;;;2.17;1.85;;;;;;;;;;4164080;34;20234;-57
2022/01/19 01:30:43;;;;;;;2.33;2.10;;;;;;;;;;4163981;34;20127;-58
2022/01/19 01:33:10;;;;;;;2.10;1.90;;;;;;;;;;4176697;34;20570;-58
2022/01/19 01:35:37;;;;;;;2.22;1.90;;;;;;;;;;4176829;34;20213;-58
2022/01/19 01:38:03;;;;;;;2.40;2.20;;;;;;;;;;4176658;34;20122;-58
2022/01/19 01:40:33;;;;;;;2.33;2.12;;;;;;;;;;4176717;34;20110;-57
2022/01/19 01:43:00;;;;;;;2.95;2.20;;;;;;;;;;4176595;34;20127;-58
2022/01/19 01:45:28;;;;;;;2.37;2.17;;;;;;;;;;4176716;34;20193;-57
2022/01/19 01:53:26;;;;;;;2.97;2.65;;;;;;;;;;4176530;34;20045;-54
2022/01/19 01:56:07;;;;;;;2.78;2.50;;;;;;;;;;4176392;34;20107;-57
2022/01/19 01:58:38;;;;;;;3.15;2.80;;;;;;;;;;4176546;34;20114;-57
2022/01/19 02:01:05;;;;;;;3.53;3.05;;;;;;;;;;4175285;34;20098;-57
2022/01/19 02:03:37;;;;;;;3.40;2.40;;;;;;;;;;4176730;34;20218;-56
2022/01/19 02:09:12;;;;;;;2.80;2.60;;;;;;;;;;4153547;34;20118;-58
2022/01/19 02:23:26;;;;;;;3.00;2.70;;;;;;;;;;4178330;34;20479;-58
2022/01/19 02:25:59;;;;;;;3.05;2.75;;;;;;;;;;4177315;34;20125;-54
2022/01/19 02:36:53;;;;;;;3.60;2.80;;;;;;;;;;4178232;34;20155;-57
2022/01/19 02:42:10;;;;;;;2.90;2.50;;;;;;;;;;4167519;34;20206;-57
2022/01/19 02:49:46;;;;;;;2.83;2.55;;;;;;;;;;4178296;34;20743;-56
2022/01/19 02:52:13;;;;;;;2.60;2.40;;;;;;;;;;4154246;34;20106;-58
2022/01/19 02:54:39;;;;;;;2.95;2.60;;;;;;;;;;4178131;34;20218;-58
2022/01/19 02:57:09;;;;;;;2.50;2.30;;;;;;;;;;4178056;34;20203;-57
2022/01/19 03:10:39;;;;;;;2.90;2.37;;;;;;;;;;4165511;34;20423;-57
2022/01/19 03:13:05;;;;;;;3.15;2.62;;;;;;;;;;4177993;34;20102;-57
2022/01/19 03:15:31;;;;;;;2.45;2.25;;;;;;;;;;4178063;34;20110;-57
2022/01/19 03:17:59;;;;;;;2.45;2.25;;;;;;;;;;4177898;34;20137;-58
2022/01/19 03:20:26;;;;;;;3.35;2.58;;;;;;;;;;4177925;34;20121;-56
2022/01/19 03:23:06;;;;;;;2.83;2.62;;;;;;;;;;4177996;34;20184;-59
2022/01/19 03:25:37;;;;;;;2.97;2.67;;;;;;;;;;4177187;34;20283;-58
2022/01/19 03:28:04;;;;;;;2.55;2.35;;;;;;;;;;4178038;34;20110;-58
2022/01/19 03:30:30;;;;;;;3.30;2.70;;;;;;;;;;4178106;34;20600;-59
2022/01/19 03:32:56;;;;;;;2.90;2.55;;;;;;;;;;4177929;34;20129;-58
2022/01/19 03:35:22;;;;;;;3.22;2.75;;;;;;;;;;4177860;34;20137;-64
2022/01/19 03:37:48;;;;;;;2.67;2.35;;;;;;;;;;4177882;34;20106;-59
2022/01/19 03:40:14;;;;;;;2.85;2.50;;;;;;;;;;4177816;34;20110;-61
2022/01/19 03:42:40;;;;;;;2.53;2.33;;;;;;;;;;4177818;34;20619;-58
2022/01/19 03:45:09;;;;;;;2.58;2.37;;;;;;;;;;4177685;34;20107;-59
2022/01/19 03:47:43;;;;;;;2.58;2.37;;;;;;;;;;4177593;34;20114;-60
2022/01/19 03:50:09;;;;;;;2.95;2.50;;;;;;;;;;4177802;34;20467;-58
2022/01/19 03:52:36;;;;;;;2.55;2.35;;;;;;;;;;4177591;34;20133;-64
2022/01/19 03:55:03;;;;;;;2.33;2.10;;;;;;;;;;4164771;34;20103;-63
2022/01/19 03:57:29;;;;;;;2.40;2.20;;;;;;;;;;4165132;34;20128;-59
2022/01/19 03:59:55;;;;;;;2.40;2.12;;;;;;;;;;4177667;34;20119;-60
2022/01/19 04:02:21;;;;;;;2.20;2.00;;;;;;;;;;4177685;34;20129;-60
2022/01/19 04:04:53;;;;;;;2.60;2.40;;;;;;;;;;4177660;34;20102;-60
2022/01/19 04:07:21;;;;;;;2.20;2.00;;;;;;;;;;4154227;34;20122;-59
2022/01/19 04:09:47;;;;;;;2.67;2.20;;;;;;;;;;4177536;34;20118;-59
2022/01/19 04:12:19;;;;;;;2.65;2.33;;;;;;;;;;4176146;34;20106;-61
2022/01/19 04:14:46;;;;;;;2.40;2.20;;;;;;;;;;4150025;34;20607;-62
2022/01/19 04:17:14;;;;;;;2.40;2.20;;;;;;;;;;4163632;34;20185;-65
2022/01/19 04:22:07;;;;;;;3.37;2.50;;;;;;;;;;4164071;34;20107;-64
2022/01/19 04:24:34;;;;;;;2.30;2.10;;;;;;;;;;4176263;34;20114;-65
2022/01/19 04:29:50;;;;;;;2.53;2.33;;;;;;;;;;4164098;34;20101;-63
2022/01/19 04:32:21;;;;;;;2.40;2.20;;;;;;;;;;4167788;34;20138;-63
2022/01/19 04:34:49;;;;;;;2.20;2.00;;;;;;;;;;4173933;34;20472;-64
2022/01/19 04:45:51;;;;;;;2.30;2.10;;;;;;;;;;4163370;34;20103;-66
2022/01/19 05:06:46;;;;;;;2.50;2.25;;;;;;;;;;4151482;34;20177;-63
2022/01/19 05:09:29;;;;;;;2.25;2.05;;;;;;;;;;4161590;34;20122;-63
2022/01/19 05:14:40;;;;;;;2.03;1.87;;;;;;;;;;4154442;34;20134;-62
2022/01/19 05:17:06;;;;;;;2.03;1.90;;;;;;;;;;4172244;34;20463;-63
2022/01/19 05:19:32;;;;;;;3.67;2.00;;;;;;;;;;4163269;34;20099;-63
2022/01/19 05:21:57;;;;;;;2.35;2.10;;;;;;;;;;4162941;34;20121;-63
2022/01/19 05:24:23;;;;;;;3.33;2.05;;;;;;;;;;4150280;34;20138;-63
2022/01/19 05:26:51;;;;;;;2.10;1.90;;;;;;;;;;4163286;34;20750;-63
2022/01/19 05:29:18;;;;;;;2.47;2.10;;;;;;;;;;4170141;34;20222;-63
2022/01/19 05:31:44;;;;;;;2.45;2.10;;;;;;;;;;4152508;34;20123;-63
2022/01/19 05:34:10;;;;;;;2.30;2.10;;;;;;;;;;4176423;34;20199;-63
2022/01/19 05:36:36;;;;;;;2.60;2.40;;;;;;;;;;4176178;34;20119;-64
2022/01/19 05:39:05;;;;;;;2.92;2.62;;;;;;;;;;4176316;34;20118;-62
2022/01/19 05:41:34;;;;;;;3.42;2.80;;;;;;;;;;4163592;34;20506;-62
2022/01/19 05:44:00;;;;;;;2.42;2.22;;;;;;;;;;4176323;34;20142;-62
2022/01/19 05:46:26;;;;;;;2.20;2.00;;;;;;;;;;4155099;34;20251;-66
2022/01/19 05:48:52;;;;;;;2.08;1.90;;;;;;;;;;4149153;34;20126;-60
2022/01/19 05:51:18;;;;;;;2.08;1.90;;;;;;;;;;4150725;34;20608;-62
2022/01/19 05:53:44;;;;;;;2.75;2.30;;;;;;;;;;4174936;34;20115;-60
2022/01/19 05:56:10;;;;;;;3.15;2.50;;;;;;;;;;4176541;34;20202;-60
2022/01/19 05:58:36;;;;;;;2.97;2.15;;;;;;;;;;4176293;34;20198;-59
2022/01/19 06:01:03;;;;;;;2.35;2.05;;;;;;;;;;4176176;34;20125;-59
2022/01/19 06:03:29;;;;;;;2.33;2.12;;;;;;;;;;4163438;34;20197;-60
2022/01/19 06:05:55;;;;;;;2.50;2.30;;;;;;;;;;4176302;34;20118;-60
2022/01/19 06:10:54;;;;;;;2.60;2.40;;;;;;;;;;4163535;34;20152;-61
2022/01/19 06:13:22;;;;;;;3.20;2.50;;;;;;;;;;4147092;34;20095;-62
2022/01/19 06:15:49;;;;;;;2.25;2.05;;;;;;;;;;4150195;34;20223;-61
2022/01/19 06:18:16;;;;;;;2.47;2.28;;;;;;;;;;4162215;34;20191;-61
2022/01/19 06:20:42;;;;;;;2.42;2.20;;;;;;;;;;4162494;34;20733;-62
2022/01/19 06:23:09;;;;;;;2.37;2.17;;;;;;;;;;4162482;34;20204;-61
2022/01/19 06:25:35;;;;;;;2.78;2.00;;;;;;;;;;4162697;34;20259;-62
2022/01/19 06:28:01;;;;;;;2.05;1.90;;;;;;;;;;4149849;34;20218;-61
2022/01/19 06:30:27;;;;;;;2.97;2.22;;;;;;;;;;4149520;34;20123;-61
2022/01/19 06:32:54;;;;;;;2.40;2.20;;;;;;;;;;4162067;34;20127;-61
2022/01/19 06:35:22;;;;;;;2.22;1.87;;;;;;;;;;4149880;34;20138;-69
2022/01/19 06:37:48;;;;;;;2.30;2.10;;;;;;;;;;4162515;34;20106;-69
2022/01/19 06:40:16;;;;;;;2.72;2.40;;;;;;;;;;4164310;34;20169;-69
2022/01/19 06:42:42;;;;;;;2.50;2.30;;;;;;;;;;4174845;34;20230;-69
2022/01/19 06:45:09;;;;;;;3.12;2.47;;;;;;;;;;4163019;34;20537;-70
2022/01/19 06:47:36;;;;;;;2.83;2.55;;;;;;;;;;4163133;34;20138;-70
2022/01/19 06:50:04;;;;;;;3.28;2.50;;;;;;;;;;4162066;34;20126;-68
2022/01/19 06:52:30;;;;;;;3.42;2.72;;;;;;;;;;4162236;34;20137;-70
2022/01/19 06:54:56;;;;;;;5.32;2.87;;;;;;;;;;4175233;34;20095;-70
2022/01/19 06:57:22;;;;;;;3.00;2.70;;;;;;;;;;4162837;34;20090;-69
2022/01/19 06:59:51;;;;;;;3.33;2.70;;;;;;;;;;4176479;34;20106;-70
2022/01/19 07:02:19;;;;;;;2.85;2.50;;;;;;;;;;4177846;34;20115;-69
2022/01/19 07:04:49;;;;;;;3.00;2.70;;;;;;;;;;4177628;34;20205;-69
2022/01/19 07:07:19;;;;;;;2.42;2.25;;;;;;;;;;4177719;34;20455;-70
2022/01/19 07:09:46;;;;;;;2.92;2.70;;;;;;;;;;4164153;34;20554;-67
2022/01/19 07:12:13;;;;;;;3.10;2.80;;;;;;;;;;4164755;34;20122;-67
2022/01/19 07:14:39;;;;;;;2.92;2.62;;;;;;;;;;4177258;34;20578;-68
2022/01/19 07:17:05;;;;;;;3.17;2.87;;;;;;;;;;4177984;34;20109;-70
2022/01/19 07:19:32;;;;;;;3.37;3.08;;;;;;;;;;4165316;34;20091;-68
2022/01/19 07:21:58;;;;;;;2.95;2.75;;;;;;;;;;4151225;34;20131;-68
2022/01/19 07:24:24;;;;;;;3.15;2.80;;;;;;;;;;4163729;34;20103;-67
2022/01/19 07:26:50;;;;;;;4.95;3.20;;;;;;;;;;4164010;34;20626;-68
2022/01/19 07:29:16;;;;;;;3.05;2.80;;;;;;;;;;4151097;34;20631;-68
2022/01/19 07:31:42;;;;;;;3.25;2.95;;;;;;;;;;4163594;34;20455;-68
2022/01/19 07:34:08;;;;;;;4.87;3.17;;;;;;;;;;4151392;34;20105;-67
2022/01/19 07:36:35;;;;;;;3.15;2.75;;;;;;;;;;4151277;34;20193;-67
2022/01/19 07:39:02;;;;;;;3.28;2.97;;;;;;;;;;4151445;34;20107;-68
2022/01/19 07:41:28;;;;;;;3.20;2.90;;;;;;;;;;4164006;34;20168;-70
2022/01/19 07:43:54;;;;;;;3.72;3.42;;;;;;;;;;4163525;34;20098;-70
2022/01/19 07:46:21;;;;;;;3.30;3.00;;;;;;;;;;4161119;34;20205;-69
2022/01/19 07:48:47;;;;;;;3.70;3.40;;;;;;;;;;4177360;34;20089;-68
2022/01/19 07:51:13;;;;;;;3.50;3.20;;;;;;;;;;4177676;34;20534;-68
2022/01/19 07:53:39;;;;;;;3.45;3.15;;;;;;;;;;4163245;34;20198;-67
2022/01/19 07:56:05;;;;;;;3.40;3.10;;;;;;;;;;4177126;34;20202;-68
2022/01/19 07:58:31;;;;;;;3.17;2.95;;;;;;;;;;4177475;34;20203;-68
2022/01/19 08:00:57;;;;;;;3.58;3.25;;;;;;;;;;4165238;34;20150;-65
2022/01/19 08:03:23;;;;;;;3.20;2.90;;;;;;;;;;4177662;34;20122;-66
2022/01/19 08:05:49;;;;;;;3.50;3.20;;;;;;;;;;4177962;34;20117;-67
2022/01/19 08:08:15;;;;;;;3.45;3.15;;;;;;;;;;4164449;34;20479;-67
2022/01/19 08:10:42;;;;;;;3.80;3.50;;;;;;;;;;4177030;34;20125;-68
2022/01/19 08:13:09;;;;;;;4.68;3.12;;;;;;;;;;4164182;34;20213;-67
2022/01/19 08:15:35;;;;;;;3.45;3.15;;;;;;;;;;4164451;34;20141;-66
2022/01/19 08:18:02;;;;;;;3.90;3.50;;;;;;;;;;4173706;34;20134;-67
2022/01/19 08:20:28;;;;;;;3.50;3.20;;;;;;;;;;4150440;34;20110;-68
2022/01/19 08:22:54;;;;;;;4.15;3.75;;;;;;;;;;4151119;34;20557;-67
2022/01/19 08:25:20;;;;;;;5.53;4.57;;;;;;;;;;4168128;34;20110;-67
2022/01/19 08:27:47;;;;;;;3.40;3.10;;;;;;;;;;4165945;34;20105;-67
2022/01/19 08:30:14;;;;;;;3.62;3.33;;;;;;;;;;4165214;34;20220;-68
2022/01/19 08:32:41;;;;;;;4.03;3.58;;;;;;;;;;4177259;34;20101;-64
2022/01/19 08:35:08;;;;;;;4.78;3.50;;;;;;;;;;4166036;34;20106;-66
2022/01/19 08:37:34;;;;;;;3.60;3.30;;;;;;;;;;4173340;34;20103;-65
2022/01/19 08:40:02;;;;;;;3.97;3.65;;;;;;;;;;4166803;34;20134;-65
2022/01/19 08:42:29;;;;;;;3.50;3.20;;;;;;;;;;4164034;34;20114;-65
2022/01/19 08:44:55;;;;;;;3.78;3.12;;;;;;;;;;4163453;34;20180;-67
2022/01/19 08:47:22;;;;;;;3.87;3.47;;;;;;;;;;4163393;34;20111;-65
2022/01/19 08:49:48;;;;;;;3.53;3.22;;;;;;;;;;4162992;34;20130;-65
2022/01/19 08:52:16;;;;;;;4.03;3.62;;;;;;;;;;4172585;34;20122;-67
2022/01/19 08:54:42;;;;;;;4.15;3.75;;;;;;;;;;4176273;34;20118;-66
2022/01/19 08:57:08;;;;;;;4.68;4.05;;;;;;;;;;4176717;34;20126;-66
2022/01/19 08:59:35;;;;;;;3.70;3.40;;;;;;;;;;4176782;34;20221;-66
2022/01/19 09:02:01;;;;;;;3.58;3.28;;;;;;;;;;4176853;34;20194;-67
2022/01/19 09:04:27;;;;;;;3.85;3.55;;;;;;;;;;4176446;34;20185;-66
2022/01/19 09:06:53;;;;;;;3.72;3.42;;;;;;;;;;4176571;34;20595;-66
2022/01/19 09:09:20;;;;;;;3.80;3.50;;;;;;;;;;4176450;34;20213;-66
2022/01/19 09:11:46;;;;;;;3.85;3.30;;;;;;;;;;4176638;34;20113;-66
2022/01/19 09:14:12;;;;;;;4.07;3.65;;;;;;;;;;4176415;34;20543;-65
2022/01/19 09:16:38;;;;;;;4.45;4.05;;;;;;;;;;4163743;34;20292;-66
2022/01/19 09:19:07;;;;;;;4.22;3.83;;;;;;;;;;4167161;34;20142;-66
2022/01/19 09:21:34;;;;;;;5.03;3.67;;;;;;;;;;4150288;34;20537;-65
2022/01/19 09:24:00;;;;;;;3.95;3.65;;;;;;;;;;4149900;34;20292;-65
2022/01/19 09:26:28;;;;;;;4.07;3.67;;;;;;;;;;4139141;34;20182;-66
2022/01/19 09:28:55;;;;;;;4.55;3.37;;;;;;;;;;4162663;34;20527;-66
2022/01/19 09:31:21;;;;;;;4.10;3.70;;;;;;;;;;4162908;34;20553;-66
2022/01/19 09:33:54;;;;;;;4.15;3.80;;;;;;;;;;4162388;34;20111;-66
2022/01/19 09:36:32;;;;;;;4.15;3.75;;;;;;;;;;4165569;34;20114;-67
2022/01/19 09:38:59;;;;;;;3.70;3.40;;;;;;;;;;4176164;34;20090;-67
2022/01/19 09:41:25;;;;;;;3.58;3.28;;;;;;;;;;4163675;34;20179;-66
2022/01/19 09:43:51;;;;;;;3.90;3.55;;;;;;;;;;4155133;34;20117;-66
2022/01/19 09:46:17;;;;;;;3.70;3.40;;;;;;;;;;4162812;34;20552;-66
2022/01/19 09:48:44;;;;;;;4.05;3.65;;;;;;;;;;4162671;34;20183;-66
2022/01/19 09:51:10;;;;;;;3.95;3.65;;;;;;;;;;4163076;34;20126;-65
2022/01/19 09:53:36;;;;;;;4.32;3.92;;;;;;;;;;4161746;34;20094;-66
2022/01/19 09:56:03;;;;;;;4.35;3.95;;;;;;;;;;4175903;34;20203;-66
2022/01/19 09:58:29;;;;;;;4.25;3.80;;;;;;;;;;4176294;34;20567;-66
2022/01/19 10:00:55;;;;;;;3.70;3.40;;;;;;;;;;4176554;34;20107;-66
2022/01/19 10:03:23;;;;;;;4.40;3.50;;;;;;;;;;4176284;34;20114;-69
2022/01/19 10:06:03;;;;;;;3.90;3.60;;;;;;;;;;4163825;34;20111;-66
2022/01/19 10:08:33;;;;;;;4.20;3.85;;;;;;;;;;4163274;34;20138;-66
2022/01/19 10:11:12;;;;;;;4.30;3.90;;;;;;;;;;4164025;34;20103;-63
2022/01/19 10:19:19;;;;;;;3.92;3.50;;;;;;;;;;4165623;34;20122;-67
2022/01/19 10:22:18;;;;;;;4.35;3.95;;;;;;;;;;4149872;34;20142;-66
2022/01/19 10:24:53;;;;;;;5.55;4.20;;;;;;;;;;4170067;34;20226;-67
2022/01/19 10:27:39;;;;;;;4.18;3.78;;;;;;;;;;4163236;34;20175;-66
2022/01/19 10:30:05;;;;;;;4.95;4.18;;;;;;;;;;4175382;34;20221;-65
2022/01/19 10:32:46;;;;;;;4.35;3.95;;;;;;;;;;4161890;34;20141;-65
2022/01/19 10:35:16;;;;;;;4.10;3.70;;;;;;;;;;4163263;34;20106;-63
2022/01/19 10:37:44;;;;;;;5.78;4.22;;;;;;;;;;4158267;34;20103;-64
2022/01/19 10:40:18;;;;;;;4.47;3.50;;;;;;;;;;4174602;34;20218;-63
2022/01/19 10:42:45;;;;;;;4.50;4.10;;;;;;;;;;4175760;34;20828;-65
2022/01/19 10:45:11;;;;;;;4.82;4.43;;;;;;;;;;4163973;34;20176;-64
2022/01/19 10:47:54;;;;;;;4.35;3.95;;;;;;;;;;4163970;34;20626;-64
2022/01/19 10:50:28;;;;;;;3.80;3.42;;;;;;;;;;4164499;34;20153;-64
2022/01/19 10:52:56;;;;;;;4.55;4.15;;;;;;;;;;4171874;34;20114;-64
2022/01/19 10:55:22;;;;;;;4.70;4.03;;;;;;;;;;4177611;34;20166;-63
2022/01/19 10:57:50;;;;;;;4.35;3.95;;;;;;;;;;4177282;34;20618;-62
2022/01/19 11:00:18;;;;;;;4.10;3.80;;;;;;;;;;4178801;34;20136;-58
2022/01/19 11:02:46;;;;;;;4.85;4.35;;;;;;;;;;4177552;34;20200;-59
2022/01/19 11:05:12;;;;;;;5.37;4.87;;;;;;;;;;4164899;34;20119;-59
2022/01/19 11:07:38;;;;;;;4.70;4.30;;;;;;;;;;4177500;34;20210;-59
2022/01/19 11:10:21;;;;;;;4.53;4.12;;;;;;;;;;4176384;34;20544;-59
2022/01/19 11:12:55;;;;;;;5.72;4.00;;;;;;;;;;4175599;34;20134;-59
2022/01/19 11:15:21;;;;;;;4.70;4.25;;;;;;;;;;4164253;34;20127;-59
2022/01/19 11:17:48;;;;;;;4.60;4.20;;;;;;;;;;4151125;34;20107;-60
2022/01/19 11:20:18;;;;;;;4.97;4.57;;;;;;;;;;4152037;34;20190;-60
2022/01/19 11:23:06;;;;;;;5.05;4.10;;;;;;;;;;4174582;34;20576;-60
2022/01/19 11:25:50;;;;;;;5.55;5.05;;;;;;;;;;4164993;34;20098;-60
2022/01/19 11:28:36;;;;;;;5.15;4.75;;;;;;;;;;4159684;34;20090;-60
2022/01/19 11:31:13;;;;;;;5.70;5.20;;;;;;;;;;4162571;34;20130;-61
2022/01/19 11:33:41;;;;;;;4.62;4.22;;;;;;;;;;4151216;34;20142;-59
2022/01/19 11:36:22;;;;;;;4.80;4.40;;;;;;;;;;4163901;34;20587;-60
2022/01/19 11:38:50;;;;;;;5.00;4.50;;;;;;;;;;4139919;34;20443;-60
2022/01/19 11:41:16;;;;;;;6.53;4.15;;;;;;;;;;4151583;34;20087;-60
2022/01/19 11:43:52;;;;;;;5.22;4.72;;;;;;;;;;4164066;34;20099;-61
2022/01/19 11:46:36;;;;;;;5.10;4.60;;;;;;;;;;4162888;34;20095;-60
2022/01/19 11:49:04;;;;;;;5.03;4.53;;;;;;;;;;4163777;34;20126;-59
2022/01/19 11:51:30;;;;;;;4.68;4.28;;;;;;;;;;4164326;34;20201;-59
2022/01/19 11:54:16;;;;;;;6.12;4.55;;;;;;;;;;4179648;34;20134;-59
2022/01/19 11:57:04;;;;;;;4.97;4.50;;;;;;;;;;4174733;34;20238;-60
2022/01/19 11:59:36;;;;;;;5.28;4.78;;;;;;;;;;4176722;34;20476;-60
2022/01/19 12:02:21;;;;;;;5.28;4.78;;;;;;;;;;4177416;34;20130;-59
2022/01/19 12:04:50;;;;;;;5.55;5.05;;;;;;;;;;4174418;34;20110;-61
2022/01/19 12:07:36;;;;;;;7.40;6.47;;;;;;;;;;4186011;34;20122;-60
2022/01/19 12:10:04;;;;;;;7.80;5.78;;;;;;;;;;4174501;34;20118;-59
2022/01/19 12:12:35;;;;;;;5.78;5.28;;;;;;;;;;4175178;34;20200;-60
2022/01/19 12:15:06;;;;;;;5.12;4.43;;;;;;;;;;4174670;34;20098;-60
2022/01/19 12:17:54;;;;;;;5.07;4.57;;;;;;;;;;4163175;34;20137;-60
2022/01/19 12:20:48;;;;;;;5.60;5.10;;;;;;;;;;4164838;34;20629;-60
2022/01/19 12:23:25;;;;;;;5.18;4.70;;;;;;;;;;4177548;34;20194;-60
2022/01/19 12:25:53;;;;;;;5.35;4.75;;;;;;;;;;4177481;34;20086;-60
2022/01/19 12:28:39;;;;;;;4.95;4.55;;;;;;;;;;4177268;34;20122;-59
2022/01/19 12:31:23;;;;;;;5.03;4.55;;;;;;;;;;4164635;34;20127;-57
2022/01/19 12:34:06;;;;;;;5.07;4.68;;;;;;;;;;4176974;34;20102;-59
2022/01/19 12:36:58;;;;;;;6.43;5.37;;;;;;;;;;4164420;34;20568;-61
2022/01/19 12:39:30;;;;;;;5.68;5.18;;;;;;;;;;4177259;34;20197;-59
2022/01/19 12:42:04;;;;;;;5.30;4.78;;;;;;;;;;4164536;34;20194;-58
2022/01/19 12:44:59;;;;;;;5.37;4.87;;;;;;;;;;4177342;34;20523;-59
2022/01/19 12:47:25;;;;;;;5.85;5.35;;;;;;;;;;4168775;34;20507;-60
2022/01/19 12:49:52;;;;;;;5.85;5.35;;;;;;;;;;4177348;34;20178;-60
2022/01/19 12:52:18;;;;;;;5.35;4.90;;;;;;;;;;4177206;34;20209;-60
2022/01/19 12:54:44;;;;;;;4.90;4.37;;;;;;;;;;4177154;34;20114;-59
2022/01/19 12:57:15;;;;;;;5.57;5.07;;;;;;;;;;4176723;34;20130;-60
2022/01/19 12:59:46;;;;;;;6.97;5.30;;;;;;;;;;4177096;34;20129;-59
2022/01/19 13:02:15;;;;;;;6.12;5.35;;;;;;;;;;4176952;34;20114;-59
2022/01/19 13:04:45;;;;;;;6.00;5.40;;;;;;;;;;4176856;34;20110;-60
2022/01/19 13:07:18;;;;;;;5.82;5.22;;;;;;;;;;4177063;34;20202;-60
2022/01/19 13:10:55;;;;;;;5.55;4.95;;;;;;;;;;4177007;34;20110;-60
2022/01/19 13:13:13;;;;;;;6.30;5.70;;;;;;;;;;4169078;34;20552;-61
2022/01/19 13:15:59;;;;;;;6.62;5.93;;;;;;;;;;4176750;34;20486;-62
2022/01/19 13:18:38;;;;;;;6.40;5.65;;;;;;;;;;4176641;34;20094;-61
2022/01/19 13:21:08;;;;;;;6.22;5.50;;;;;;;;;;4176719;34;20138;-61
2022/01/19 13:23:37;;;;;;;6.30;5.70;;;;;;;;;;4176676;34;20122;-60
2022/01/19 13:26:05;;;;;;;6.50;5.85;;;;;;;;;;4176908;34;20099;-60
2022/01/19 13:28:34;;;;;;;5.90;5.40;;;;;;;;;;4175403;34;20110;-60
2022/01/19 13:31:18;;;;;;;5.45;4.85;;;;;;;;;;4176829;34;20106;-61
2022/01/19 13:34:02;;;;;;;6.80;5.37;;;;;;;;;;4164308;34;20141;-60
2022/01/19 13:36:29;;;;;;;5.57;5.07;;;;;;;;;;4176769;34;20201;-60
2022/01/19 13:38:56;;;;;;;6.35;5.75;;;;;;;;;;4176645;34;20110;-63
2022/01/19 13:41:23;;;;;;;6.20;5.60;;;;;;;;;;4161153;34;20117;-62
2022/01/19 13:43:49;;;;;;;5.32;4.82;;;;;;;;;;4156738;34;20214;-62
2022/01/19 13:46:24;;;;;;;6.93;5.68;;;;;;;;;;4175744;34;20110;-63
2022/01/19 13:49:02;;;;;;;6.62;6.03;;;;;;;;;;4151542;34;20502;-62
2022/01/19 13:51:30;;;;;;;7.07;6.37;;;;;;;;;;4173947;34;20538;-62
2022/01/19 13:54:00;;;;;;;7.25;5.65;;;;;;;;;;4161180;34;20099;-62
2022/01/19 13:56:29;;;;;;;6.47;5.90;;;;;;;;;;4156412;34;20137;-62
2022/01/19 13:59:05;;;;;;;5.95;5.35;;;;;;;;;;4162652;34;20126;-61
2022/01/19 14:01:35;;;;;;;5.90;5.40;;;;;;;;;;4161223;34;20099;-64
2022/01/19 14:04:07;;;;;;;7.62;6.93;;;;;;;;;;4162408;34;20118;-63
2022/01/19 14:06:36;;;;;;;6.55;5.95;;;;;;;;;;4162375;34;20130;-63
2022/01/19 14:09:27;;;;;;;7.68;6.90;;;;;;;;;;4150289;34;20099;-63
2022/01/19 14:12:06;;;;;;;6.55;5.95;;;;;;;;;;4161318;34;20197;-63
2022/01/19 14:14:37;;;;;;;7.05;6.25;;;;;;;;;;4178446;34;20209;-62
2022/01/19 14:17:09;;;;;;;7.20;6.50;;;;;;;;;;4178077;34;20145;-62
2022/01/19 14:19:49;;;;;;;7.12;6.53;;;;;;;;;;4177609;34;20801;-62
2022/01/19 14:22:25;;;;;;;7.57;6.78;;;;;;;;;;4178386;34;20130;-61
2022/01/19 14:24:54;;;;;;;8.25;6.22;;;;;;;;;;4177938;34;20110;-62
2022/01/19 14:27:23;;;;;;;7.28;6.57;;;;;;;;;;4175727;34;20456;-62
2022/01/19 14:30:07;;;;;;;6.95;6.28;;;;;;;;;;4165262;34;20474;-60
2022/01/19 14:32:45;;;;;;;7.72;6.93;;;;;;;;;;4178195;34;20473;-59
2022/01/19 14:35:24;;;;;;;10.05;9.05;;;;;;;;;;4178062;34;20548;-60
2022/01/19 14:38:05;;;;;;;8.55;7.50;;;;;;;;;;4178010;34;20106;-62
2022/01/19 14:40:35;;;;;;;8.13;7.28;;;;;;;;;;4178178;34;20115;-61
2022/01/19 14:43:02;;;;;;;6.50;5.90;;;;;;;;;;4178207;34;20471;-62
2022/01/19 14:45:36;;;;;;;6.90;6.20;;;;;;;;;;4165207;34;20202;-62
2022/01/19 14:48:25;;;;;;;8.10;7.35;;;;;;;;;;4154807;34;20117;-61
2022/01/19 14:50:51;;;;;;;7.60;6.90;;;;;;;;;;4178187;34;20191;-61
2022/01/19 14:53:17;;;;;;;7.53;6.80;;;;;;;;;;4183169;34;20110;-62
2022/01/19 14:55:45;;;;;;;7.62;6.85;;;;;;;;;;4188483;34;20210;-62
2022/01/19 14:58:12;;;;;;;10.00;6.90;;;;;;;;;;4177930;34;20118;-61
2022/01/19 15:00:40;;;;;;;7.22;6.00;;;;;;;;;;4178054;34;20121;-61
2022/01/19 15:03:07;;;;;;;6.97;6.35;;;;;;;;;;4174590;34;20158;-62
2022/01/19 15:05:36;;;;;;;7.15;6.45;;;;;;;;;;4166004;34;20197;-63
2022/01/19 15:08:03;;;;;;;7.25;5.72;;;;;;;;;;4176234;34;20169;-61
2022/01/19 15:10:30;;;;;;;5.55;5.05;;;;;;;;;;4177266;34;20134;-58
2022/01/19 15:12:57;;;;;;;6.12;5.57;;;;;;;;;;4177940;34;20125;-59
2022/01/19 15:15:26;;;;;;;6.32;5.60;;;;;;;;;;4165183;34;20142;-57
2022/01/19 15:17:53;;;;;;;8.18;6.40;;;;;;;;;;4177883;34;20124;-59
2022/01/19 15:20:20;;;;;;;6.78;6.00;;;;;;;;;;4164768;34;20126;-59
2022/01/19 15:22:46;;;;;;;6.25;5.65;;;;;;;;;;4177014;34;20644;-61
2022/01/19 15:25:13;;;;;;;7.03;6.35;;;;;;;;;;4177896;34;20206;-61
2022/01/19 15:27:39;;;;;;;7.28;6.10;;;;;;;;;;4177770;34;20194;-61
2022/01/19 15:30:06;;;;;;;7.35;6.45;;;;;;;;;;4177969;34;20202;-62
2022/01/19 15:32:32;;;;;;;7.03;6.32;;;;;;;;;;4177845;34;20202;-61
2022/01/19 15:34:58;;;;;;;8.35;7.55;;;;;;;;;;4165330;34;20200;-61
2022/01/19 15:37:25;;;;;;;7.97;7.18;;;;;;;;;;4177633;34;20110;-63
2022/01/19 15:39:53;;;;;;;8.30;7.18;;;;;;;;;;4177737;34;20107;-63
2022/01/19 15:42:19;;;;;;;7.93;7.15;;;;;;;;;;4177800;34;20118;-63
2022/01/19 15:44:45;;;;;;;7.82;7.03;;;;;;;;;;4177690;34;20562;-64
2022/01/19 15:47:13;;;;;;;7.35;6.60;;;;;;;;;;4165013;34;20220;-63
2022/01/19 15:49:39;;;;;;;8.18;7.10;;;;;;;;;;4177597;34;20771;-64
2022/01/19 15:52:05;;;;;;;9.07;8.05;;;;;;;;;;4164819;34;20106;-60
2022/01/19 15:54:32;;;;;;;9.40;8.15;;;;;;;;;;4177509;34;20447;-64
2022/01/19 15:56:59;;;;;;;9.43;8.43;;;;;;;;;;4165034;34;20216;-63
2022/01/19 15:59:25;;;;;;;9.65;7.95;;;;;;;;;;4177524;34;20091;-63
2022/01/19 16:01:51;;;;;;;8.63;7.82;;;;;;;;;;4177556;34;20135;-63
2022/01/19 16:04:17;;;;;;;8.45;7.55;;;;;;;;;;4177518;34;20137;-63
2022/01/19 16:06:44;;;;;;;7.55;6.85;;;;;;;;;;4177417;34;20134;-63
2022/01/19 16:09:11;;;;;;;9.93;7.78;;;;;;;;;;4177449;34;20095;-63
2022/01/19 16:11:38;;;;;;;7.50;6.70;;;;;;;;;;4177515;34;20110;-62
2022/01/19 16:14:05;;;;;;;7.25;6.43;;;;;;;;;;4177448;34;20535;-64
2022/01/19 16:16:32;;;;;;;7.45;6.72;;;;;;;;;;4175996;34;20129;-63
2022/01/19 16:18:58;;;;;;;8.10;6.75;;;;;;;;;;4177245;34;20122;-63
2022/01/19 16:21:24;;;;;;;8.02;7.15;;;;;;;;;;4177292;34;20145;-64
2022/01/19 16:26:36;;;;;;;6.93;6.23;;;;;;;;;;4177410;34;20121;-64
2022/01/19 16:29:03;;;;;;;7.80;6.60;;;;;;;;;;4177375;34;20129;-64
2022/01/19 16:31:29;;;;;;;6.60;5.93;;;;;;;;;;4176868;34;20205;-64
2022/01/19 16:33:55;;;;;;;6.78;6.10;;;;;;;;;;4177221;34;20122;-65
2022/01/19 16:36:22;;;;;;;7.25;6.53;;;;;;;;;;4177272;34;20126;-65
2022/01/19 16:38:48;;;;;;;6.62;6.03;;;;;;;;;;4164558;34;20117;-66
2022/01/19 16:41:19;;;;;;;6.20;5.62;;;;;;;;;;4177464;34;20102;-65
2022/01/19 16:43:46;;;;;;;6.22;5.57;;;;;;;;;;4164936;34;20121;-65
2022/01/19 16:46:13;;;;;;;7.40;6.60;;;;;;;;;;4177311;34;20137;-65
2022/01/19 16:48:41;;;;;;;7.75;5.78;;;;;;;;;;4164707;34;20118;-65
2022/01/19 16:51:07;;;;;;;6.62;6.03;;;;;;;;;;4177272;34;20126;-64